FR-0206 weather

Centre de Secours de Courchevel Heliport
Courchevel, Auvergne-Rhône-Alpes, France

Public forecast

Using degrees Celsius for public forecast. Weather courtesy of forecast.io.

Closest aviation weather report (METAR) to Centre de Secours de Courchevel Heliport

Closest report is Chambéry-Savoie Airport, 34.4 nm (63.7 km) WNW. Retrieved 2019/11/19 22:30 UTC (15 minutes ago):

LFLB 192230Z AUTO 17002KT 9999 OVC032 05/03 Q1016

Closest aviation forecast (TAF) to Centre de Secours de Courchevel Heliport

Closest forecast is Chambéry-Savoie Airport, 34.4 nm (63.7 km) WNW. Retrieved 2019/11/19 21:06 UTC (2 hours ago):

TAF LFLB 192159Z 1921/2018 CNL